createdAt,value
2023-02-09T00:00:07.061Z,6.05
2023-02-09T00:03:21.591Z,6.15
2023-02-09T00:06:30.131Z,6.50
2023-02-09T00:09:35.538Z,6.20
2023-02-09T00:12:53.558Z,5.70
2023-02-09T00:16:01.991Z,5.50
2023-02-09T00:19:10.188Z,5.20
2023-02-09T00:22:15.455Z,5.72
2023-02-09T00:25:21.192Z,5.53
2023-02-09T00:28:26.595Z,5.45
2023-02-09T00:31:32.228Z,5.85
2023-02-09T00:34:41.304Z,5.47
2023-02-09T00:37:46.508Z,5.97
2023-02-09T00:40:52.375Z,5.65
2023-02-09T00:43:58.946Z,5.57
2023-02-09T00:47:04.876Z,5.63
2023-02-09T00:50:13.159Z,6.30
2023-02-09T00:56:23.951Z,5.55
2023-02-09T00:59:29.793Z,6.00
2023-02-09T01:02:35.359Z,5.88
2023-02-09T01:05:44.823Z,6.30
2023-02-09T01:08:50.978Z,5.97
2023-02-09T01:11:56.650Z,6.10
2023-02-09T01:15:02.130Z,5.45
2023-02-09T01:18:10.324Z,6.22
2023-02-09T01:21:19.243Z,5.68
2023-02-09T01:24:24.828Z,5.97
2023-02-09T01:27:30.192Z,6.07
2023-02-09T01:30:37.817Z,7.18
2023-02-09T01:33:43.400Z,6.40
2023-02-09T01:36:51.686Z,6.18
2023-02-09T01:39:56.910Z,6.05
2023-02-09T01:43:02.234Z,6.53
2023-02-09T01:46:08.034Z,6.53
2023-02-09T01:49:15.507Z,6.97
2023-02-09T01:52:26.454Z,6.33
2023-02-09T01:55:33.495Z,6.70
2023-02-09T01:58:38.760Z,7.00
2023-02-09T02:01:44.753Z,6.35
2023-02-09T02:04:50.585Z,6.68
2023-02-09T02:08:01.641Z,7.22
2023-02-09T02:11:07.892Z,6.32
2023-02-09T02:14:28.564Z,7.18
2023-02-09T02:17:55.339Z,7.25
2023-02-09T02:21:20.842Z,7.18
2023-02-09T02:24:46.803Z,6.88
2023-02-09T02:28:01.204Z,7.07
2023-02-09T02:31:14.436Z,6.75
2023-02-09T02:34:24.520Z,7.18
2023-02-09T02:37:50.507Z,7.18
2023-02-09T02:41:00.822Z,7.88
2023-02-09T02:44:08.906Z,7.53
2023-02-09T02:47:16.382Z,7.45
2023-02-09T02:50:27.323Z,7.23
2023-02-09T02:53:34.190Z,7.13
2023-02-09T02:56:40.467Z,7.10
2023-02-09T02:59:48.295Z,7.78
2023-02-09T03:02:56.441Z,7.95
2023-02-09T03:06:06.186Z,7.43
2023-02-09T03:09:11.763Z,7.25
2023-02-09T03:12:20.011Z,7.32
2023-02-09T03:15:30.873Z,7.20
2023-02-09T03:18:39.465Z,7.15
2023-02-09T03:21:54.998Z,7.50
2023-02-09T03:25:03.699Z,7.65
2023-02-09T03:28:11.665Z,8.20
2023-02-09T03:31:17.621Z,8.17
2023-02-09T03:34:23.111Z,8.52
2023-02-09T03:37:31.454Z,8.00
2023-02-09T03:40:37.416Z,8.07
2023-02-09T03:43:55.241Z,8.65
2023-02-09T03:47:01.546Z,8.52
2023-02-09T03:50:07.169Z,7.68
2023-02-09T03:53:15.407Z,8.75
2023-02-09T03:56:20.867Z,9.32
2023-02-09T03:59:26.636Z,9.50
2023-02-09T04:02:32.258Z,8.85
2023-02-09T04:05:37.480Z,8.95
2023-02-09T04:08:46.197Z,9.10
2023-02-09T04:11:52.253Z,8.48
2023-02-09T04:14:57.890Z,8.68
2023-02-09T04:18:03.317Z,8.32
2023-02-09T04:21:08.906Z,8.95
2023-02-09T04:24:17.338Z,8.60
2023-02-09T04:27:22.716Z,9.32
2023-02-09T04:30:28.526Z,9.25
2023-02-09T04:33:34.196Z,8.57
2023-02-09T04:36:39.576Z,9.50
2023-02-09T04:39:47.846Z,9.23
2023-02-09T04:42:53.318Z,9.43
2023-02-09T04:45:58.869Z,8.57
2023-02-09T04:49:04.521Z,9.13
2023-02-09T04:52:09.905Z,9.60
2023-02-09T04:55:17.864Z,10.10
2023-02-09T04:58:36.032Z,9.77
2023-02-09T05:01:41.561Z,9.38
2023-02-09T05:04:46.758Z,10.00
2023-02-09T05:07:52.049Z,9.07
2023-02-09T05:11:00.288Z,9.68
2023-02-09T05:14:05.556Z,8.98
2023-02-09T05:17:11.158Z,9.45
2023-02-09T05:20:16.814Z,9.40
2023-02-09T05:23:21.828Z,9.13
2023-02-09T05:26:29.961Z,9.70
2023-02-09T05:29:35.017Z,9.85
2023-02-09T05:32:40.660Z,8.73
2023-02-09T05:35:46.164Z,10.23
2023-02-09T05:38:51.623Z,9.07
2023-02-09T05:42:11.800Z,9.10
2023-02-09T05:45:17.438Z,9.65
2023-02-09T05:48:22.643Z,9.02
2023-02-09T05:51:28.238Z,9.73
2023-02-09T05:54:34.130Z,8.95
2023-02-09T05:57:42.508Z,8.65
2023-02-09T06:00:48.041Z,7.90
2023-02-09T06:03:53.797Z,7.35
2023-02-09T06:06:59.805Z,6.55
2023-02-09T06:10:05.257Z,6.75
2023-02-09T06:13:13.537Z,7.13
2023-02-09T06:16:18.955Z,6.60
2023-02-09T06:19:24.684Z,6.22
2023-02-09T06:22:31.893Z,6.30
2023-02-09T06:25:37.561Z,6.88
2023-02-09T06:28:45.697Z,7.20
2023-02-09T06:31:51.499Z,7.00
2023-02-09T06:34:57.002Z,8.15
2023-02-09T06:38:02.497Z,7.75
2023-02-09T06:41:08.154Z,7.75
2023-02-09T06:44:16.306Z,7.43
2023-02-09T06:47:21.479Z,7.65
2023-02-09T06:50:26.750Z,8.57
2023-02-09T06:53:32.284Z,8.77
2023-02-09T06:56:37.909Z,8.40
2023-02-09T06:59:45.785Z,6.68
2023-02-09T07:02:51.276Z,6.93
2023-02-09T07:05:56.680Z,7.57
2023-02-09T07:09:01.869Z,7.47
2023-02-09T07:12:07.783Z,6.95
2023-02-09T07:15:16.501Z,7.50
2023-02-09T07:18:21.747Z,7.18
2023-02-09T07:21:27.112Z,7.88
2023-02-09T07:24:32.288Z,9.15
2023-02-09T07:27:37.971Z,10.30
2023-02-09T07:30:46.638Z,9.95
2023-02-09T07:33:52.608Z,10.63
2023-02-09T07:36:58.151Z,9.55
2023-02-09T07:40:03.681Z,9.73
2023-02-09T07:43:09.360Z,10.25
2023-02-09T07:46:18.600Z,9.25
2023-02-09T07:49:24.127Z,10.23
2023-02-09T07:52:29.708Z,9.52
2023-02-09T07:55:35.039Z,9.32
2023-02-09T07:58:40.531Z,10.88
2023-02-09T08:01:48.636Z,10.20
2023-02-09T08:04:53.989Z,9.95
2023-02-09T08:07:59.199Z,9.73
2023-02-09T08:11:05.752Z,9.07
2023-02-09T08:14:13.653Z,10.52
2023-02-09T08:17:24.732Z,9.43
2023-02-09T08:20:31.154Z,10.48
2023-02-09T08:23:40.355Z,12.10
2023-02-09T08:26:45.947Z,10.32
2023-02-09T08:29:51.536Z,11.25
2023-02-09T08:32:59.487Z,10.13
2023-02-09T08:36:05.374Z,11.63
2023-02-09T08:39:10.334Z,11.43
2023-02-09T08:42:16.090Z,10.73
2023-02-09T08:45:21.808Z,12.73
2023-02-09T08:48:29.962Z,11.30
2023-02-09T08:51:35.216Z,11.93
2023-02-09T08:54:40.433Z,12.00
2023-02-09T08:57:46.222Z,11.68
2023-02-09T09:00:51.789Z,12.25
2023-02-09T09:03:59.922Z,11.45
2023-02-09T09:07:05.696Z,12.38
2023-02-09T09:10:11.914Z,11.63
2023-02-09T09:13:18.045Z,12.30
2023-02-09T09:16:24.503Z,12.70
2023-02-09T09:19:32.703Z,12.10
2023-02-09T09:22:38.243Z,13.43
2023-02-09T09:25:44.127Z,12.40
2023-02-09T09:28:52.576Z,12.32
2023-02-09T09:31:57.818Z,12.30
2023-02-09T09:35:06.418Z,13.35
2023-02-09T09:38:11.637Z,12.13
2023-02-09T09:41:21.819Z,13.27
2023-02-09T09:44:30.961Z,12.35
2023-02-09T09:47:39.792Z,12.65
2023-02-09T09:50:48.190Z,13.77
2023-02-09T09:53:54.531Z,14.52
2023-02-09T09:57:00.029Z,15.88
2023-02-09T10:00:06.270Z,12.90
2023-02-09T10:03:16.837Z,11.27
2023-02-09T10:06:25.949Z,12.40
2023-02-09T10:09:38.338Z,10.55
2023-02-09T10:12:47.067Z,10.95
2023-02-09T10:15:53.244Z,10.85
2023-02-09T10:18:59.882Z,10.43
2023-02-09T10:22:08.564Z,10.75
2023-02-09T10:28:22.215Z,10.07
2023-02-09T10:31:36.573Z,10.30
2023-02-09T10:34:45.340Z,9.98
2023-02-09T10:37:58.391Z,10.52
2023-02-09T10:41:04.068Z,8.93
2023-02-09T10:44:12.185Z,9.40
2023-02-09T10:47:28.868Z,8.45
2023-02-09T10:50:34.236Z,8.38
2023-02-09T10:53:44.251Z,8.73
2023-02-09T10:56:51.051Z,8.88
2023-02-09T10:59:57.705Z,8.35
2023-02-09T11:03:04.813Z,7.75
2023-02-09T11:06:14.374Z,7.78
2023-02-09T11:09:23.569Z,7.43
2023-02-09T11:12:29.903Z,7.72
2023-02-09T11:15:39.040Z,6.68
2023-02-09T11:18:46.455Z,8.63
2023-02-09T11:21:59.153Z,7.80
2023-02-09T11:25:16.470Z,8.27
2023-02-09T11:28:34.580Z,7.88
2023-02-09T11:34:50.685Z,7.95
2023-02-09T11:37:59.603Z,7.80
2023-02-09T11:41:29.304Z,9.32
2023-02-09T11:44:35.697Z,6.80
2023-02-09T11:47:49.631Z,7.45
2023-02-09T11:51:00.432Z,7.20
2023-02-09T11:54:08.513Z,7.70
2023-02-09T11:57:22.287Z,8.23
2023-02-09T12:00:30.868Z,6.53
2023-02-09T12:03:36.160Z,8.10
2023-02-09T12:06:44.293Z,7.18
2023-02-09T12:09:53.869Z,7.03
2023-02-09T12:13:06.439Z,5.60
2023-02-09T12:16:15.943Z,6.47
2023-02-09T12:19:28.157Z,5.25
2023-02-09T12:22:48.330Z,5.55
2023-02-09T12:25:55.752Z,5.35
2023-02-09T12:29:20.241Z,4.97
2023-02-09T12:32:31.053Z,4.53
2023-02-09T12:35:41.380Z,4.13
2023-02-09T12:38:53.557Z,4.88
2023-02-09T12:42:16.046Z,3.45
2023-02-09T12:45:37.431Z,4.00
2023-02-09T12:48:49.401Z,4.85
2023-02-09T12:51:57.387Z,3.78
2023-02-09T12:55:02.763Z,3.63
2023-02-09T12:58:23.164Z,4.20
2023-02-09T13:01:43.583Z,3.53
2023-02-09T13:04:59.580Z,3.08
2023-02-09T13:08:07.250Z,3.85
2023-02-09T13:11:21.681Z,3.83
2023-02-09T13:14:27.439Z,4.07
2023-02-09T13:17:36.594Z,3.35
2023-02-09T13:21:01.070Z,3.20
2023-02-09T13:24:07.767Z,3.15
2023-02-09T13:27:20.392Z,3.10
2023-02-09T13:30:29.907Z,4.18
2023-02-09T13:33:38.681Z,4.93
2023-02-09T13:36:49.154Z,4.07
2023-02-09T13:40:01.400Z,4.20
2023-02-09T13:43:17.448Z,4.32
2023-02-09T13:46:27.253Z,4.00
2023-02-09T13:49:33.173Z,4.57
2023-02-09T13:52:41.444Z,4.63
2023-02-09T13:55:49.039Z,4.57
2023-02-09T13:58:54.734Z,4.37
2023-02-09T14:02:00.401Z,2.85
2023-02-09T14:05:07.815Z,3.40
2023-02-09T14:08:16.725Z,3.70
2023-02-09T14:11:41.601Z,3.70
2023-02-09T14:15:04.776Z,3.47
2023-02-09T14:18:24.841Z,3.58
2023-02-09T14:21:34.684Z,3.15
2023-02-09T14:24:46.887Z,3.35
2023-02-09T14:27:52.609Z,2.97
2023-02-09T14:30:58.325Z,2.67
2023-02-09T14:34:03.629Z,3.70
2023-02-09T14:37:23.626Z,3.90
2023-02-09T14:40:37.702Z,4.85
2023-02-09T14:43:43.072Z,4.05
2023-02-09T14:46:52.844Z,4.25
2023-02-09T14:49:59.579Z,4.85
2023-02-09T14:53:08.076Z,3.85
2023-02-09T14:59:21.113Z,4.43
2023-02-09T15:02:27.428Z,4.30
2023-02-09T15:05:33.169Z,4.30
2023-02-09T15:08:40.651Z,4.88
2023-02-09T15:11:58.372Z,4.37
2023-02-09T15:15:06.438Z,4.35
2023-02-09T15:18:18.941Z,4.35
2023-02-09T15:21:24.347Z,3.85
2023-02-09T15:24:30.089Z,4.60
2023-02-09T15:27:37.206Z,4.60
2023-02-09T15:30:45.655Z,5.13
2023-02-09T15:33:51.250Z,4.88
2023-02-09T15:36:56.795Z,5.28
2023-02-09T15:40:04.971Z,5.63
2023-02-09T15:43:26.129Z,5.22
2023-02-09T15:46:46.633Z,4.97
2023-02-09T15:49:52.516Z,5.50
2023-02-09T15:52:58.372Z,4.57
2023-02-09T15:56:04.124Z,4.47
2023-02-09T15:59:09.732Z,4.20
2023-02-09T16:02:19.923Z,4.88
2023-02-09T16:05:25.900Z,4.70
2023-02-09T16:08:33.537Z,4.88
2023-02-09T16:11:41.406Z,3.73
2023-02-09T16:14:46.796Z,3.80
2023-02-09T16:17:55.239Z,4.22
2023-02-09T16:24:06.752Z,3.90
2023-02-09T16:27:16.174Z,4.03
2023-02-09T16:30:22.605Z,3.47
2023-02-09T16:33:30.981Z,5.07
2023-02-09T16:36:37.385Z,4.15
2023-02-09T16:39:42.434Z,4.35
2023-02-09T16:42:48.648Z,4.50
2023-02-09T16:46:03.266Z,4.07
2023-02-09T16:49:14.586Z,3.63
2023-02-09T16:52:21.124Z,3.20
2023-02-09T16:55:28.982Z,3.78
2023-02-09T16:58:35.144Z,3.75
2023-02-09T17:01:41.291Z,3.65
2023-02-09T17:04:49.119Z,3.45
2023-02-09T17:07:55.802Z,3.85
2023-02-09T17:11:01.663Z,3.45
2023-02-09T17:14:07.322Z,3.83
2023-02-09T17:17:13.351Z,4.30
2023-02-09T17:20:23.256Z,3.50
2023-02-09T17:23:29.284Z,3.17
2023-02-09T17:26:34.763Z,3.83
2023-02-09T17:29:40.077Z,3.90
2023-02-09T17:32:45.979Z,3.78
2023-02-09T17:36:23.682Z,5.00
2023-02-09T17:39:19.581Z,3.60
2023-02-09T17:42:25.976Z,4.28
2023-02-09T17:45:35.344Z,3.70
2023-02-09T17:48:41.061Z,3.92
2023-02-09T17:51:49.278Z,5.00
2023-02-09T17:54:54.805Z,4.90
2023-02-09T17:58:01.168Z,5.80
2023-02-09T18:01:09.111Z,4.13
2023-02-09T18:04:19.746Z,4.72
2023-02-09T18:07:27.637Z,4.80
2023-02-09T18:10:33.003Z,3.83
2023-02-09T18:13:38.484Z,5.47
2023-02-09T18:16:44.181Z,4.43
2023-02-09T18:19:50.244Z,5.30
2023-02-09T18:22:58.470Z,4.60
2023-02-09T18:26:04.312Z,3.80
2023-02-09T18:29:09.641Z,3.58
2023-02-09T18:32:15.855Z,4.60
2023-02-09T18:35:21.989Z,4.13
2023-02-09T18:38:30.417Z,6.85
2023-02-09T18:44:40.901Z,5.00
2023-02-09T18:47:46.904Z,4.85
2023-02-09T18:50:53.169Z,4.68
2023-02-09T18:54:01.591Z,3.60
2023-02-09T18:57:07.292Z,4.30
2023-02-09T19:00:14.351Z,4.05
2023-02-09T19:03:20.368Z,4.05
2023-02-09T19:06:26.056Z,4.28
2023-02-09T19:09:33.957Z,4.20
2023-02-09T19:12:39.907Z,4.30
2023-02-09T19:15:46.538Z,4.47
2023-02-09T19:18:52.183Z,4.65
2023-02-09T19:21:58.186Z,4.50
2023-02-09T19:25:06.499Z,9.10
2023-02-09T19:28:12.195Z,4.50
2023-02-09T19:31:18.671Z,5.18
2023-02-09T19:34:24.272Z,4.53
2023-02-09T19:37:29.461Z,4.47
2023-02-09T19:40:41.351Z,4.20
2023-02-09T19:43:46.772Z,3.42
2023-02-09T19:46:52.225Z,3.35
2023-02-09T19:49:58.187Z,2.80
2023-02-09T19:53:03.770Z,3.17
2023-02-09T19:56:17.198Z,2.88
2023-02-09T19:59:22.651Z,3.33
2023-02-09T20:02:28.589Z,2.67
2023-02-09T20:05:34.242Z,3.50
2023-02-09T20:08:40.079Z,3.42
2023-02-09T20:15:13.474Z,3.00
2023-02-09T20:18:19.966Z,3.17
2023-02-09T20:21:26.404Z,3.30
2023-02-09T20:24:31.815Z,3.08
2023-02-09T20:27:40.160Z,3.05
2023-02-09T20:30:46.338Z,3.10
2023-02-09T20:33:52.053Z,3.72
2023-02-09T20:36:57.744Z,3.13
2023-02-09T20:40:03.469Z,3.10
2023-02-09T20:43:25.169Z,3.80
2023-02-09T20:46:44.675Z,3.08
2023-02-09T20:49:49.824Z,2.38
2023-02-09T20:52:55.662Z,2.92
2023-02-09T20:56:01.271Z,3.97
2023-02-09T20:59:10.224Z,3.67
2023-02-09T21:02:16.173Z,3.63
2023-02-09T21:05:21.961Z,3.70
2023-02-09T21:08:27.075Z,3.60
2023-02-09T21:11:32.823Z,4.00
2023-02-09T21:14:45.348Z,3.58
2023-02-09T21:17:51.888Z,4.00
2023-02-09T21:20:58.955Z,4.28
2023-02-09T21:24:04.213Z,4.43
2023-02-09T21:27:09.996Z,4.47
2023-02-09T21:30:18.062Z,4.38
2023-02-09T21:33:23.206Z,4.18
2023-02-09T21:36:29.113Z,4.40
2023-02-09T21:39:34.562Z,3.78
2023-02-09T21:42:40.121Z,4.97
2023-02-09T21:45:48.298Z,5.00
2023-02-09T21:51:59.031Z,4.40
2023-02-09T21:55:04.898Z,4.03
2023-02-09T21:58:10.092Z,4.35
2023-02-09T22:01:18.286Z,5.18
2023-02-09T22:07:30.004Z,4.40
2023-02-09T22:10:35.299Z,4.65
2023-02-09T22:13:40.988Z,5.03
2023-02-09T22:16:49.057Z,4.68
2023-02-09T22:19:54.605Z,5.00
2023-02-09T22:23:00.123Z,4.95
2023-02-09T22:26:06.214Z,4.40
2023-02-09T22:29:12.815Z,4.60
2023-02-09T22:32:20.974Z,4.75
2023-02-09T22:35:26.267Z,4.60
2023-02-09T22:38:31.587Z,5.38
2023-02-09T22:41:37.056Z,4.85
2023-02-09T22:44:42.427Z,4.97
2023-02-09T22:47:50.418Z,5.00
2023-02-09T22:50:55.935Z,4.65
2023-02-09T22:54:01.920Z,4.10
2023-02-09T22:57:07.144Z,4.93
2023-02-09T23:00:14.645Z,4.65
2023-02-09T23:03:22.798Z,5.37
2023-02-09T23:06:30.469Z,4.50
2023-02-09T23:09:35.951Z,4.90
2023-02-09T23:12:41.100Z,4.70
2023-02-09T23:15:47.021Z,5.10
2023-02-09T23:18:55.943Z,4.57
2023-02-09T23:22:01.840Z,4.80
2023-02-09T23:25:07.059Z,4.65
2023-02-09T23:28:12.300Z,4.38
2023-02-09T23:31:19.138Z,4.07
2023-02-09T23:34:27.325Z,4.47
2023-02-09T23:37:38.590Z,4.63
2023-02-09T23:40:43.802Z,4.40
2023-02-09T23:43:49.553Z,4.60
2023-02-09T23:46:54.993Z,5.18
2023-02-09T23:50:03.025Z,5.60
2023-02-09T23:53:08.664Z,4.50
2023-02-09T23:56:15.815Z,5.05
2023-02-09T23:59:21.288Z,5.53
